Time;durP1;ratioP1;P1;durP2;ratioP2;P2;SDS_P1;SDS_P2;PMS_P1;PMS_P2;Temp;Humidity;BMP_temperature;BMP_pressure;BME280_temperature;BME280_humidity;BME280_pressure;Samples;Min_cycle;Max_cycle;Signal;HPM_P1;HPM_P2
2023/05/03 00:00:22;;;;;;;5.57;2.33;;;5.50;99.90;;;;;;5056991;28;20131;-58
2023/05/03 00:02:48;;;;;;;3.88;2.20;;;5.40;99.90;;;;;;5056449;28;20191;-58
2023/05/03 00:05:14;;;;;;;4.80;2.20;;;5.40;99.90;;;;;;5041163;28;20041;-59
2023/05/03 00:07:43;;;;;;;4.40;2.25;;;5.30;99.90;;;;;;5050789;28;20099;-59
2023/05/03 00:10:17;;;;;;;9.50;2.38;;;5.30;99.90;;;;;;5038707;28;20045;-59
2023/05/03 00:12:43;;;;;;;5.68;2.00;;;5.20;99.90;;;;;;5052246;28;20504;-59
2023/05/03 00:15:10;;;;;;;6.65;2.05;;;5.20;99.90;;;;;;5057638;28;20041;-58
2023/05/03 00:17:36;;;;;;;5.70;2.03;;;5.10;99.90;;;;;;5054116;28;20097;-58
2023/05/03 00:20:04;;;;;;;4.53;2.03;;;5.10;99.90;;;;;;5053865;28;20047;-59
2023/05/03 00:22:30;;;;;;;7.28;2.67;;;5.10;99.90;;;;;;5047948;28;20513;-58
2023/05/03 00:24:57;;;;;;;4.53;2.45;;;5.10;99.90;;;;;;5053469;28;20077;-58
2023/05/03 00:27:23;;;;;;;6.70;2.25;;;5.00;99.90;;;;;;5047722;28;20025;-58
2023/05/03 00:29:52;;;;;;;4.95;2.30;;;5.20;99.90;;;;;;5047299;28;20048;-58
2023/05/03 00:32:21;;;;;;;4.82;2.40;;;4.90;99.90;;;;;;5048035;28;20108;-58
2023/05/03 00:34:55;;;;;;;4.50;2.05;;;4.90;99.90;;;;;;5050816;28;20049;-57
2023/05/03 00:37:21;;;;;;;8.20;2.70;;;4.80;99.90;;;;;;5057512;28;20076;-59
2023/05/03 00:39:47;;;;;;;5.13;2.42;;;4.80;99.90;;;;;;5057419;28;20132;-58
2023/05/03 00:42:12;;;;;;;5.10;2.50;;;4.80;99.90;;;;;;5044904;28;20048;-58
2023/05/03 00:44:38;;;;;;;6.03;2.78;;;4.80;99.90;;;;;;5057486;28;20052;-59
2023/05/03 00:47:05;;;;;;;8.63;2.42;;;4.80;99.90;;;;;;5054667;28;20030;-58
2023/05/03 00:49:32;;;;;;;4.93;3.00;;;4.50;99.90;;;;;;5049031;28;20548;-59
2023/05/03 00:51:58;;;;;;;10.02;2.70;;;4.80;99.90;;;;;;5052598;28;20051;-58
2023/05/03 00:54:28;;;;;;;8.95;3.00;;;4.80;99.90;;;;;;5055802;28;20103;-58
2023/05/03 00:56:55;;;;;;;8.65;2.75;;;4.80;99.90;;;;;;5056296;28;20033;-59
2023/05/03 00:59:21;;;;;;;7.32;2.50;;;4.70;99.90;;;;;;5043641;28;20072;-59
2023/05/03 01:01:51;;;;;;;4.25;2.33;;;4.70;99.90;;;;;;5040292;28;20046;-58
2023/05/03 01:04:18;;;;;;;7.57;2.65;;;4.70;99.90;;;;;;5049767;28;20059;-59
2023/05/03 01:06:55;;;;;;;6.10;2.35;;;4.70;99.90;;;;;;5055276;28;20520;-58
2023/05/03 01:09:28;;;;;;;6.03;2.20;;;4.60;99.90;;;;;;5056813;28;20041;-60
2023/05/03 01:12:05;;;;;;;7.10;3.03;;;4.60;99.90;;;;;;5053375;28;20048;-58
2023/05/03 01:14:49;;;;;;;8.25;2.60;;;4.60;99.90;;;;;;5061349;28;20045;-58
2023/05/03 01:17:16;;;;;;;8.98;2.50;;;4.50;99.90;;;;;;5042833;28;20041;-58
2023/05/03 01:19:47;;;;;;;4.38;2.42;;;4.60;99.90;;;;;;5045739;28;20045;-58
2023/05/03 01:22:48;;;;;;;8.07;2.50;;;4.50;99.90;;;;;;5042104;28;20174;-58
2023/05/03 01:25:15;;;;;;;5.20;2.60;;;4.50;99.90;;;;;;5045973;28;20080;-59
2023/05/03 01:27:41;;;;;;;5.45;2.83;;;4.40;99.90;;;;;;5044727;28;20057;-59
2023/05/03 01:30:11;;;;;;;7.47;2.58;;;4.50;99.90;;;;;;5043892;28;20056;-59
2023/05/03 01:32:54;;;;;;;7.43;2.70;;;4.40;99.90;;;;;;5048144;28;20064;-58
2023/05/03 01:35:46;;;;;;;5.57;2.50;;;4.40;99.90;;;;;;5044183;28;20048;-58
2023/05/03 01:38:12;;;;;;;6.45;2.47;;;4.40;99.90;;;;;;5060234;28;20508;-59
2023/05/03 01:40:49;;;;;;;4.70;2.38;;;4.40;99.90;;;;;;5059156;28;20108;-58
2023/05/03 01:43:15;;;;;;;6.82;2.42;;;4.40;99.90;;;;;;5061446;28;20064;-59
2023/05/03 01:45:42;;;;;;;5.35;2.63;;;4.30;99.90;;;;;;5055555;28;20120;-59
2023/05/03 01:48:16;;;;;;;5.88;2.75;;;4.40;99.90;;;;;;5058367;28;20073;-58
2023/05/03 01:50:42;;;;;;;5.88;2.50;;;4.30;99.90;;;;;;5049763;28;20102;-59
2023/05/03 01:53:07;;;;;;;7.90;2.95;;;4.30;99.90;;;;;;5054332;28;20064;-59
2023/05/03 01:55:33;;;;;;;5.45;2.90;;;4.20;99.90;;;;;;5056088;28;20039;-58
2023/05/03 01:57:59;;;;;;;12.10;3.08;;;4.20;99.90;;;;;;5053985;28;20041;-58
2023/05/03 02:00:25;;;;;;;6.28;2.63;;;4.20;99.90;;;;;;5058346;28;20131;-57
2023/05/03 02:02:50;;;;;;;5.90;2.80;;;4.30;99.90;;;;;;5058517;28;20041;-58
2023/05/03 02:05:16;;;;;;;7.00;2.85;;;4.30;99.90;;;;;;5057126;28;20409;-60
2023/05/03 02:07:42;;;;;;;7.68;2.72;;;4.00;99.90;;;;;;5050490;28;20094;-58
2023/05/03 02:10:13;;;;;;;6.03;2.97;;;4.10;99.90;;;;;;5044754;28;20037;-58
2023/05/03 02:12:40;;;;;;;9.27;3.05;;;4.00;99.90;;;;;;5057467;28;20063;-58
2023/05/03 02:15:06;;;;;;;5.28;3.00;;;3.90;99.90;;;;;;5046980;28;20098;-59
2023/05/03 02:17:33;;;;;;;5.65;2.85;;;3.90;99.90;;;;;;5054429;28;20158;-59
2023/05/03 02:19:58;;;;;;;5.78;2.30;;;3.90;99.90;;;;;;5055676;28;20049;-58
2023/05/03 02:22:24;;;;;;;6.15;2.80;;;3.80;99.90;;;;;;5049482;28;20393;-58
2023/05/03 02:24:50;;;;;;;7.10;2.90;;;3.80;99.90;;;;;;5045130;28;20529;-59
2023/05/03 02:27:16;;;;;;;5.63;2.90;;;3.90;99.90;;;;;;5058763;28;20049;-58
2023/05/03 02:29:42;;;;;;;5.72;3.10;;;3.80;99.90;;;;;;5057917;28;20111;-58
2023/05/03 02:32:07;;;;;;;5.82;2.72;;;3.70;99.90;;;;;;5061042;28;20052;-59
2023/05/03 02:34:33;;;;;;;9.35;3.25;;;3.70;99.90;;;;;;5044870;28;20041;-58
2023/05/03 02:36:59;;;;;;;5.20;2.80;;;3.70;99.90;;;;;;5058693;28;20112;-58
2023/05/03 02:39:25;;;;;;;4.00;2.78;;;3.70;99.90;;;;;;5049952;28;20053;-58
2023/05/03 02:41:50;;;;;;;4.93;3.30;;;3.60;99.90;;;;;;5042581;28;20170;-58
2023/05/03 02:44:16;;;;;;;6.82;2.83;;;3.50;99.90;;;;;;5057343;28;20106;-59
2023/05/03 02:46:42;;;;;;;12.82;3.17;;;3.50;99.90;;;;;;5044435;28;20096;-59
2023/05/03 02:49:08;;;;;;;5.35;2.80;;;3.80;99.90;;;;;;5052384;28;20060;-58
2023/05/03 02:51:34;;;;;;;5.75;2.83;;;3.50;99.90;;;;;;5049738;28;20055;-56
2023/05/03 02:54:00;;;;;;;4.53;2.60;;;3.40;99.90;;;;;;5047917;28;20045;-58
2023/05/03 02:56:26;;;;;;;3.95;2.47;;;3.40;99.90;;;;;;5060244;28;20037;-59
2023/05/03 02:58:52;;;;;;;6.57;3.38;;;3.40;99.90;;;;;;5057951;28;20037;-57
2023/05/03 03:01:18;;;;;;;7.45;3.03;;;3.50;99.90;;;;;;5059567;28;20048;-58
2023/05/03 03:03:43;;;;;;;7.82;3.08;;;3.40;99.90;;;;;;5054627;28;20056;-59
2023/05/03 03:06:09;;;;;;;4.80;2.97;;;3.40;99.90;;;;;;5054561;28;20073;-59
2023/05/03 03:08:36;;;;;;;6.97;3.55;;;3.40;99.90;;;;;;5049766;28;20036;-58
2023/05/03 03:11:02;;;;;;;7.75;3.47;;;3.40;99.90;;;;;;5058382;28;20423;-58
2023/05/03 03:13:28;;;;;;;5.38;3.22;;;3.40;99.90;;;;;;5057114;28;20056;-58
2023/05/03 03:15:54;;;;;;;7.47;3.60;;;3.30;99.90;;;;;;5055127;28;20037;-58
2023/05/03 03:18:20;;;;;;;7.80;3.25;;;3.30;99.90;;;;;;5046249;28;20438;-58
2023/05/03 03:20:45;;;;;;;6.43;2.95;;;3.30;99.90;;;;;;5052018;28;20045;-59
2023/05/03 03:23:11;;;;;;;7.05;3.25;;;3.30;99.90;;;;;;5059672;28;20036;-58
2023/05/03 03:25:37;;;;;;;6.43;3.58;;;3.40;99.90;;;;;;5053374;28;20068;-58
2023/05/03 03:28:03;;;;;;;7.93;3.65;;;3.40;99.90;;;;;;5050032;28;20097;-58
2023/05/03 03:30:29;;;;;;;5.60;2.90;;;3.20;99.90;;;;;;5049520;28;20055;-57
2023/05/03 03:32:54;;;;;;;6.85;3.05;;;3.20;99.90;;;;;;5049133;28;20086;-59
2023/05/03 03:35:20;;;;;;;4.95;3.13;;;3.20;99.90;;;;;;5046206;28;20037;-59
2023/05/03 03:37:46;;;;;;;4.65;3.10;;;3.40;99.90;;;;;;5052293;28;20051;-58
2023/05/03 03:40:12;;;;;;;7.05;3.20;;;3.20;99.90;;;;;;5047962;28;20069;-58
2023/05/03 03:42:38;;;;;;;10.27;3.20;;;3.20;99.90;;;;;;5069850;28;20037;-59
2023/05/03 03:45:05;;;;;;;5.60;3.15;;;3.20;99.90;;;;;;5045475;28;20040;-56
2023/05/03 03:47:30;;;;;;;6.43;3.50;;;3.10;99.90;;;;;;5053927;28;20056;-58
2023/05/03 03:49:57;;;;;;;7.25;2.95;;;3.10;99.90;;;;;;5058537;28;20045;-58
2023/05/03 03:52:23;;;;;;;8.10;3.40;;;3.10;99.90;;;;;;5059079;28;20045;-58
2023/05/03 03:54:48;;;;;;;5.85;3.40;;;3.10;99.90;;;;;;5057536;28;20076;-58
2023/05/03 03:57:14;;;;;;;7.82;3.80;;;3.10;99.90;;;;;;5052833;28;20724;-57
2023/05/03 03:59:40;;;;;;;5.82;3.53;;;3.10;99.90;;;;;;5056088;28;20049;-58
2023/05/03 04:02:05;;;;;;;7.43;3.55;;;3.00;99.90;;;;;;5042946;28;20341;-57
2023/05/03 04:04:31;;;;;;;5.70;3.28;;;3.00;99.90;;;;;;5041532;28;20072;-58
2023/05/03 04:06:57;;;;;;;8.35;3.97;;;3.00;99.90;;;;;;5053643;28;20064;-59
2023/05/03 04:09:22;;;;;;;8.60;3.63;;;4.40;99.90;;;;;;5055669;28;20124;-59
2023/05/03 04:11:48;;;;;;;6.60;3.72;;;2.90;99.90;;;;;;5047170;28;20102;-57
2023/05/03 04:14:14;;;;;;;6.20;3.58;;;2.90;99.90;;;;;;5052815;28;20078;-59
2023/05/03 04:16:39;;;;;;;9.38;3.83;;;2.90;99.90;;;;;;5046972;28;20037;-59
2023/05/03 04:19:05;;;;;;;10.05;3.67;;;2.90;99.90;;;;;;5057241;28;20449;-58
2023/05/03 04:21:31;;;;;;;7.82;3.65;;;2.90;99.90;;;;;;5053455;28;20091;-59
2023/05/03 04:23:57;;;;;;;8.05;3.78;;;2.90;99.90;;;;;;5047837;28;20041;-58
2023/05/03 04:26:23;;;;;;;6.90;3.70;;;2.90;99.90;;;;;;5056148;28;20463;-58
2023/05/03 04:28:50;;;;;;;8.70;4.18;;;2.90;99.90;;;;;;5055229;28;20041;-58
2023/05/03 04:31:18;;;;;;;5.90;3.35;;;2.90;99.90;;;;;;5042465;28;20037;-58
2023/05/03 04:33:44;;;;;;;7.43;3.72;;;3.00;99.90;;;;;;5046923;28;20078;-60
2023/05/03 04:36:14;;;;;;;7.43;3.90;;;3.00;99.90;;;;;;5044862;28;20101;-59
2023/05/03 04:38:40;;;;;;;7.32;4.03;;;3.00;99.90;;;;;;5046317;28;20048;-59
2023/05/03 04:41:06;;;;;;;7.32;3.80;;;3.00;99.90;;;;;;5051458;28;20073;-59
2023/05/03 04:43:33;;;;;;;6.47;3.72;;;3.00;99.90;;;;;;5048678;28;20100;-59
2023/05/03 04:45:59;;;;;;;9.73;3.65;;;3.00;99.90;;;;;;5050998;28;20536;-60
2023/05/03 04:48:25;;;;;;;6.55;3.97;;;3.00;99.90;;;;;;5047078;28;20033;-60
2023/05/03 04:50:51;;;;;;;5.18;3.55;;;3.10;99.90;;;;;;5047098;28;20053;-58
2023/05/03 04:53:16;;;;;;;7.18;3.75;;;3.10;99.90;;;;;;5055429;28;20124;-58
2023/05/03 04:55:42;;;;;;;5.53;3.65;;;3.10;99.90;;;;;;5054996;28;20461;-59
2023/05/03 04:58:08;;;;;;;6.95;3.95;;;3.20;99.90;;;;;;5043766;28;20098;-59
2023/05/03 05:00:33;;;;;;;8.65;3.75;;;3.20;99.90;;;;;;5049187;28;20360;-58
2023/05/03 05:03:00;;;;;;;4.80;3.60;;;3.20;99.90;;;;;;5048840;28;20041;-59
2023/05/03 05:05:25;;;;;;;14.73;3.67;;;3.30;99.90;;;;;;5054083;28;20068;-58
2023/05/03 05:07:51;;;;;;;8.77;4.30;;;3.40;99.90;;;;;;5048018;28;20056;-57
2023/05/03 05:10:17;;;;;;;7.68;3.60;;;3.40;99.90;;;;;;5046690;28;20037;-58
2023/05/03 05:12:43;;;;;;;6.80;4.25;;;3.40;99.90;;;;;;5049065;28;20427;-58
2023/05/03 05:15:09;;;;;;;10.13;4.20;;;3.50;99.90;;;;;;5031119;28;20043;-56
2023/05/03 05:17:35;;;;;;;7.22;4.03;;;3.50;99.90;;;;;;5050345;28;20037;-56
2023/05/03 05:20:00;;;;;;;6.55;3.97;;;3.60;99.90;;;;;;5071863;28;20053;-56
2023/05/03 05:22:26;;;;;;;8.65;4.25;;;3.70;99.90;;;;;;5056032;28;20056;-57
2023/05/03 05:24:52;;;;;;;5.82;4.20;;;3.70;99.90;;;;;;5051696;28;20047;-56
2023/05/03 05:27:17;;;;;;;5.05;3.67;;;3.90;99.90;;;;;;5054159;28;20041;-56
2023/05/03 05:29:43;;;;;;;9.55;4.13;;;3.90;99.90;;;;;;5051200;28;20060;-57
2023/05/03 05:32:09;;;;;;;7.10;3.95;;;3.90;99.90;;;;;;5040415;28;20042;-57
2023/05/03 05:34:35;;;;;;;9.88;4.18;;;4.10;99.90;;;;;;5037658;28;20048;-58
2023/05/03 05:37:00;;;;;;;9.63;4.45;;;4.10;99.90;;;;;;5056325;28;20083;-57
2023/05/03 05:39:26;;;;;;;9.63;4.35;;;4.20;99.90;;;;;;5056069;28;20048;-56
2023/05/03 05:41:55;;;;;;;7.22;4.18;;;4.30;99.90;;;;;;5052073;28;20041;-56
2023/05/03 05:44:20;;;;;;;9.02;3.92;;;4.50;99.90;;;;;;5047666;28;20048;-57
2023/05/03 05:46:46;;;;;;;6.28;4.40;;;4.50;99.90;;;;;;5054138;28;20048;-57
2023/05/03 05:49:12;;;;;;;5.45;3.72;;;4.60;99.90;;;;;;5053094;28;20033;-56
2023/05/03 05:51:38;;;;;;;8.55;3.58;;;4.70;99.90;;;;;;5048271;28;20051;-57
2023/05/03 05:54:03;;;;;;;11.70;4.20;;;4.80;99.90;;;;;;5052365;28;20037;-57
2023/05/03 05:56:29;;;;;;;7.75;3.88;;;4.90;99.90;;;;;;5053538;28;20045;-57
2023/05/03 05:58:55;;;;;;;12.57;3.97;;;5.00;99.90;;;;;;5055201;28;20079;-59
2023/05/03 06:01:21;;;;;;;5.97;3.83;;;5.10;99.90;;;;;;5046174;28;20082;-56
2023/05/03 06:03:47;;;;;;;7.20;3.67;;;5.20;99.90;;;;;;5045642;28;21354;-57
2023/05/03 06:06:13;;;;;;;10.93;4.10;;;5.30;99.90;;;;;;5039295;28;20069;-57
2023/05/03 06:08:38;;;;;;;9.90;3.92;;;5.40;99.90;;;;;;5045725;28;20037;-57
2023/05/03 06:11:04;;;;;;;6.50;3.67;;;5.50;99.90;;;;;;5048967;28;20037;-56
2023/05/03 06:13:32;;;;;;;8.27;3.85;;;5.60;99.90;;;;;;5049078;28;20037;-56
2023/05/03 06:15:57;;;;;;;7.32;3.80;;;5.70;99.90;;;;;;5051706;28;20495;-57
2023/05/03 06:18:23;;;;;;;7.82;3.60;;;5.80;99.90;;;;;;5051411;28;20208;-57
2023/05/03 06:20:49;;;;;;;8.50;3.42;;;5.90;99.90;;;;;;5054075;28;20428;-56
2023/05/03 06:23:15;;;;;;;7.38;3.78;;;6.00;99.90;;;;;;5056763;28;20095;-57
2023/05/03 06:25:40;;;;;;;12.77;4.28;;;6.20;99.90;;;;;;5047599;28;20413;-57
2023/05/03 06:28:06;;;;;;;7.00;3.40;;;6.30;99.90;;;;;;5051994;28;20104;-58
2023/05/03 06:30:32;;;;;;;9.77;3.53;;;6.60;99.90;;;;;;5049826;28;20045;-58
2023/05/03 06:32:58;;;;;;;6.38;3.35;;;6.80;99.90;;;;;;5049152;28;20125;-58
2023/05/03 06:35:23;;;;;;;7.43;3.20;;;7.00;99.90;;;;;;5053739;28;20033;-58
2023/05/03 06:37:49;;;;;;;5.47;2.80;;;7.30;99.90;;;;;;5051103;28;20056;-57
2023/05/03 06:40:15;;;;;;;4.70;2.65;;;7.70;99.90;;;;;;5055375;28;20037;-57
2023/05/03 06:42:41;;;;;;;3.25;2.30;;;8.10;99.90;;;;;;5053232;28;20045;-58
2023/05/03 06:45:07;;;;;;;7.10;3.00;;;8.40;99.90;;;;;;5049928;28;20049;-57
2023/05/03 06:47:33;;;;;;;5.43;2.50;;;8.60;99.90;;;;;;5058417;28;20041;-58
2023/05/03 06:49:58;;;;;;;4.70;2.30;;;8.70;99.90;;;;;;5048670;28;20511;-57
2023/05/03 06:52:24;;;;;;;4.38;2.30;;;9.00;99.90;;;;;;5048050;28;20052;-58
2023/05/03 06:54:50;;;;;;;3.83;1.98;;;9.20;99.90;;;;;;5040537;28;20052;-58
2023/05/03 06:57:15;;;;;;;5.32;2.15;;;9.30;99.90;;;;;;5052856;28;20048;-57
2023/05/03 06:59:41;;;;;;;3.95;2.00;;;9.30;99.90;;;;;;5044424;28;20044;-57
2023/05/03 07:02:07;;;;;;;2.95;1.60;;;9.20;99.90;;;;;;5054598;28;20208;-58
2023/05/03 07:04:32;;;;;;;4.75;2.05;;;9.30;99.90;;;;;;5049635;28;20072;-58
2023/05/03 07:06:58;;;;;;;4.50;1.83;;;9.30;99.90;;;;;;5051661;28;20048;-58
2023/05/03 07:09:23;;;;;;;4.63;1.80;;;9.30;99.90;;;;;;5058653;28;20044;-58
2023/05/03 07:11:50;;;;;;;3.55;1.73;;;9.30;99.90;;;;;;5054789;28;20077;-58
2023/05/03 07:14:16;;;;;;;5.72;1.92;;;9.50;99.90;;;;;;5053827;28;20099;-58
2023/05/03 07:16:42;;;;;;;3.13;1.58;;;9.90;99.90;;;;;;5049373;28;20462;-58
2023/05/03 07:19:08;;;;;;;3.78;1.40;;;10.20;99.90;;;;;;5048225;28;20042;-58
2023/05/03 07:21:34;;;;;;;3.10;1.30;;;10.60;99.90;;;;;;5049409;28;20353;-58
2023/05/03 07:24:00;;;;;;;4.30;1.20;;;11.00;99.90;;;;;;5056265;28;20052;-58
2023/05/03 07:26:26;;;;;;;2.03;1.05;;;11.40;99.90;;;;;;5057288;28;20100;-58
2023/05/03 07:28:52;;;;;;;2.33;1.05;;;11.70;99.90;;;;;;5053246;28;20046;-58
2023/05/03 07:31:18;;;;;;;2.67;1.05;;;11.90;99.90;;;;;;5054637;28;20049;-56
2023/05/03 07:33:44;;;;;;;4.00;1.30;;;12.30;99.90;;;;;;5051829;28;20055;-58
2023/05/03 07:36:10;;;;;;;6.00;1.48;;;12.50;99.90;;;;;;5054566;28;20041;-57
2023/05/03 07:38:36;;;;;;;2.38;0.77;;;12.60;99.90;;;;;;5047095;28;20034;-58
2023/05/03 07:41:02;;;;;;;2.78;1.10;;;12.80;99.90;;;;;;5050825;28;20043;-57
2023/05/03 07:43:29;;;;;;;3.85;1.10;;;12.80;99.90;;;;;;5035315;28;20037;-55
2023/05/03 07:45:55;;;;;;;4.18;1.20;;;12.80;99.90;;;;;;5051594;28;20087;-57
2023/05/03 07:48:21;;;;;;;3.30;1.40;;;12.50;99.90;;;;;;5044842;28;20501;-56
2023/05/03 07:50:46;;;;;;;3.90;1.42;;;12.40;99.90;;;;;;5044270;28;20045;-56
2023/05/03 07:53:13;;;;;;;2.47;1.00;;;12.60;99.90;;;;;;5054296;28;20048;-56
2023/05/03 07:55:38;;;;;;;4.55;1.15;;;12.70;99.00;;;;;;5056116;28;20076;-56
2023/05/03 07:58:04;;;;;;;2.95;1.05;;;12.70;98.50;;;;;;5044783;28;20049;-56
2023/05/03 08:00:30;;;;;;;5.32;1.30;;;12.70;99.30;;;;;;5049002;28;20103;-56
2023/05/03 08:02:56;;;;;;;3.80;1.20;;;12.90;98.80;;;;;;5057665;28;20064;-56
2023/05/03 08:05:22;;;;;;;3.58;1.30;;;13.00;98.50;;;;;;5048225;28;20377;-56
2023/05/03 08:07:48;;;;;;;3.20;1.27;;;13.10;98.40;;;;;;5044747;28;20048;-56
2023/05/03 08:10:14;;;;;;;4.97;1.17;;;13.10;98.50;;;;;;5053234;28;20065;-56
2023/05/03 08:12:40;;;;;;;2.75;1.00;;;13.30;98.60;;;;;;5054033;28;20042;-55
2023/05/03 08:15:06;;;;;;;3.70;1.30;;;13.40;98.10;;;;;;5051954;28;20158;-56
2023/05/03 08:17:42;;;;;;;5.18;1.65;;;13.50;98.10;;;;;;5049261;28;20029;-56
2023/05/03 08:20:09;;;;;;;2.70;1.20;;;13.50;96.70;;;;;;5051634;28;20493;-56
2023/05/03 08:22:39;;;;;;;3.10;1.33;;;13.50;97.80;;;;;;5055988;28;20067;-56
2023/05/03 08:25:06;;;;;;;2.10;1.17;;;13.50;97.50;;;;;;5050012;28;20053;-55
2023/05/03 08:27:32;;;;;;;3.05;1.25;;;13.40;97.10;;;;;;5051797;28;20681;-56
2023/05/03 08:30:00;;;;;;;5.90;1.83;;;13.20;96.40;;;;;;5037034;28;20041;-56
2023/05/03 08:32:27;;;;;;;4.55;1.48;;;13.10;96.60;;;;;;5051779;28;20170;-56
2023/05/03 08:34:54;;;;;;;6.05;1.58;;;12.90;96.70;;;;;;5050621;28;20040;-56
2023/05/03 08:37:20;;;;;;;4.82;1.40;;;12.60;95.80;;;;;;5047894;28;20045;-56
2023/05/03 08:39:46;;;;;;;3.15;1.30;;;12.40;95.70;;;;;;5049687;28;20055;-56
2023/05/03 08:42:12;;;;;;;3.78;1.50;;;12.10;96.50;;;;;;5053414;28;20124;-56
2023/05/03 08:44:46;;;;;;;4.47;1.70;;;12.00;96.70;;;;;;5056281;28;20036;-56
2023/05/03 08:47:16;;;;;;;2.83;1.10;;;11.90;97.60;;;;;;5037779;28;20044;-56
2023/05/03 08:49:43;;;;;;;2.78;1.65;;;11.90;97.60;;;;;;5044569;28;20041;-56
2023/05/03 08:52:10;;;;;;;4.22;1.50;;;12.00;97.70;;;;;;5049032;28;20055;-56
2023/05/03 08:54:37;;;;;;;5.03;1.92;;;12.00;98.20;;;;;;5051913;28;20375;-56
2023/05/03 08:57:03;;;;;;;3.00;1.75;;;12.10;98.40;;;;;;5057692;28;20037;-56
2023/05/03 08:59:29;;;;;;;5.93;1.90;;;12.20;98.80;;;;;;5047888;28;20087;-56
2023/05/03 09:01:54;;;;;;;2.90;1.50;;;12.30;98.10;;;;;;5050201;28;20048;-55
2023/05/03 09:04:32;;;;;;;6.60;1.88;;;12.30;98.10;;;;;;5047854;28;20511;-57
2023/05/03 09:07:07;;;;;;;6.28;1.83;;;12.30;97.70;;;;;;5052020;28;20132;-58
2023/05/03 09:09:33;;;;;;;2.90;1.45;;;12.30;97.10;;;;;;5051459;28;20049;-57
2023/05/03 09:11:58;;;;;;;3.13;1.65;;;12.40;98.10;;;;;;5052203;28;20037;-57
2023/05/03 09:14:24;;;;;;;3.80;1.27;;;12.40;98.30;;;;;;5056052;28;20434;-57
2023/05/03 09:16:50;;;;;;;6.45;1.70;;;12.50;98.10;;;;;;5046958;28;20559;-56
2023/05/03 09:19:16;;;;;;;5.05;1.75;;;12.50;97.50;;;;;;5033467;28;20069;-57
2023/05/03 09:21:49;;;;;;;4.72;1.65;;;12.40;97.70;;;;;;5050785;28;20039;-55
2023/05/03 09:24:20;;;;;;;5.07;1.40;;;12.50;97.90;;;;;;5051813;28;20041;-57
2023/05/03 09:26:47;;;;;;;3.90;1.35;;;12.60;98.00;;;;;;5048653;28;20049;-57
2023/05/03 09:29:34;;;;;;;3.38;1.80;;;12.80;97.70;;;;;;5051969;28;20508;-57
2023/05/03 09:32:04;;;;;;;3.97;1.50;;;12.90;96.90;;;;;;5054994;28;20036;-57
2023/05/03 09:34:30;;;;;;;4.63;1.83;;;13.00;97.80;;;;;;5055667;28;20103;-57
2023/05/03 09:36:56;;;;;;;4.00;1.52;;;13.20;97.00;;;;;;5044272;28;20042;-57
2023/05/03 09:39:22;;;;;;;3.40;1.55;;;13.30;97.20;;;;;;5052238;28;20071;-59
2023/05/03 09:41:48;;;;;;;4.35;1.42;;;13.50;96.70;;;;;;5058924;28;20050;-59
2023/05/03 09:44:16;;;;;;;3.85;1.48;;;13.50;96.30;;;;;;5054430;28;20531;-56
2023/05/03 09:47:05;;;;;;;6.35;1.70;;;13.50;96.40;;;;;;5055295;28;20033;-57
2023/05/03 09:49:31;;;;;;;3.17;1.50;;;13.50;95.90;;;;;;5043392;28;20045;-57
2023/05/03 09:51:58;;;;;;;4.18;1.60;;;13.40;95.20;;;;;;5057528;28;20029;-57
2023/05/03 09:54:24;;;;;;;4.28;1.90;;;13.20;95.50;;;;;;5058051;28;20083;-57
2023/05/03 09:56:54;;;;;;;4.45;1.92;;;13.10;95.40;;;;;;5052971;28;20044;-56
2023/05/03 09:59:20;;;;;;;3.72;1.40;;;13.10;95.70;;;;;;5055153;28;20047;-57
2023/05/03 10:01:46;;;;;;;3.65;1.50;;;13.20;95.30;;;;;;5061181;28;20048;-57
2023/05/03 10:04:18;;;;;;;5.07;1.23;;;13.30;94.90;;;;;;5053513;28;20103;-57
2023/05/03 10:06:47;;;;;;;4.78;1.50;;;13.10;94.40;;;;;;5048950;28;20517;-57
2023/05/03 10:09:19;;;;;;;5.07;1.80;;;13.10;94.80;;;;;;5051350;28;20060;-56
2023/05/03 10:11:50;;;;;;;2.88;1.63;;;13.20;94.80;;;;;;5058442;28;20045;-57
2023/05/03 10:14:16;;;;;;;2.72;1.67;;;13.20;94.70;;;;;;5053229;28;20044;-57
2023/05/03 10:16:47;;;;;;;3.10;1.50;;;13.20;94.90;;;;;;5056434;28;20033;-57
2023/05/03 10:19:53;;;;;;;9.95;2.03;;;13.10;94.70;;;;;;5056646;28;20522;-57
2023/05/03 10:22:18;;;;;;;4.90;1.50;;;13.10;94.50;;;;;;5044210;28;20058;-57
2023/05/03 10:25:00;;;;;;;5.68;2.13;;;13.10;94.90;;;;;;5046306;28;20047;-57
2023/05/03 10:28:01;;;;;;;6.45;1.90;;;13.20;94.00;;;;;;5051449;28;20037;-57
2023/05/03 10:30:28;;;;;;;7.57;1.90;;;13.10;92.00;;;;;;5013882;28;20046;-57
2023/05/03 10:32:54;;;;;;;3.97;1.70;;;13.10;94.10;;;;;;5043711;28;20049;-57
2023/05/03 10:35:20;;;;;;;4.13;2.22;;;13.20;94.30;;;;;;5046894;28;20047;-55
2023/05/03 10:37:49;;;;;;;7.22;2.15;;;13.20;94.60;;;;;;5057247;28;20053;-57
2023/05/03 10:40:16;;;;;;;3.05;1.90;;;13.40;94.60;;;;;;5049188;28;20067;-57
2023/05/03 10:43:09;;;;;;;6.10;2.13;;;13.40;94.40;;;;;;5051647;28;20516;-56
2023/05/03 10:45:35;;;;;;;4.97;1.80;;;13.50;94.50;;;;;;5049747;28;20075;-56
2023/05/03 10:48:10;;;;;;;4.50;1.90;;;13.30;94.10;;;;;;5059591;28;20045;-57
2023/05/03 10:50:36;;;;;;;8.38;2.10;;;13.50;94.10;;;;;;5048853;28;20124;-56
2023/05/03 10:53:02;;;;;;;4.10;2.47;;;13.50;94.10;;;;;;5056703;28;20045;-57
2023/05/03 10:55:28;;;;;;;5.53;1.95;;;13.50;94.40;;;;;;5046515;28;20048;-57
2023/05/03 10:57:57;;;;;;;4.10;2.47;;;13.80;94.50;;;;;;5053874;28;20044;-57
2023/05/03 11:00:32;;;;;;;6.47;2.20;;;13.60;94.00;;;;;;5051998;28;20064;-57
2023/05/03 11:03:25;;;;;;;3.33;1.83;;;13.60;93.80;;;;;;5050412;28;20041;-57
2023/05/03 11:05:52;;;;;;;3.72;1.77;;;13.60;93.50;;;;;;5053455;28;20084;-57
2023/05/03 11:08:20;;;;;;;2.97;1.70;;;13.70;93.30;;;;;;5047512;28;20119;-57
2023/05/03 11:10:47;;;;;;;4.32;2.10;;;13.60;93.40;;;;;;5045555;28;20053;-56
2023/05/03 11:13:13;;;;;;;6.00;1.92;;;13.70;93.50;;;;;;5055412;28;20052;-56
2023/05/03 11:15:40;;;;;;;4.03;1.88;;;13.80;93.50;;;;;;5050158;28;20068;-57
2023/05/03 11:18:07;;;;;;;4.10;2.10;;;13.70;92.40;;;;;;5051983;28;20045;-56
2023/05/03 11:20:33;;;;;;;4.75;2.22;;;13.70;92.30;;;;;;5047983;28;20049;-57
2023/05/03 11:22:59;;;;;;;3.25;1.90;;;13.70;92.90;;;;;;5055796;28;20554;-58
2023/05/03 11:25:25;;;;;;;4.40;1.98;;;13.80;93.00;;;;;;5052573;28;20076;-58
2023/05/03 11:27:51;;;;;;;4.97;2.10;;;13.90;92.90;;;;;;5051791;28;20065;-58
2023/05/03 11:30:17;;;;;;;4.47;1.80;;;14.00;92.00;;;;;;5055395;28;20048;-57
2023/05/03 11:32:43;;;;;;;4.50;2.13;;;14.00;91.90;;;;;;5045217;28;20508;-58
2023/05/03 11:35:11;;;;;;;4.53;1.88;;;14.10;92.50;;;;;;5038186;28;20480;-57
2023/05/03 11:37:37;;;;;;;5.50;2.10;;;14.10;92.70;;;;;;5042166;28;20056;-58
2023/05/03 11:40:03;;;;;;;4.63;2.00;;;14.10;92.90;;;;;;5049370;28;20449;-58
2023/05/03 11:42:29;;;;;;;7.88;2.67;;;14.20;92.90;;;;;;5049012;28;20085;-57
2023/05/03 11:44:55;;;;;;;3.45;2.05;;;14.30;92.90;;;;;;5052136;28;20056;-57
2023/05/03 11:47:22;;;;;;;4.75;2.35;;;14.40;92.40;;;;;;5048462;28;20041;-56
2023/05/03 11:49:55;;;;;;;5.53;2.03;;;14.40;92.60;;;;;;5051660;28;20037;-57
2023/05/03 11:52:22;;;;;;;10.43;2.60;;;14.60;92.80;;;;;;5050436;28;20045;-55
2023/05/03 11:54:48;;;;;;;3.83;2.10;;;14.70;92.90;;;;;;5047728;28;20277;-56
2023/05/03 11:57:15;;;;;;;3.60;2.10;;;14.80;92.50;;;;;;5049803;28;20073;-56
2023/05/03 11:59:41;;;;;;;8.85;2.20;;;14.80;91.50;;;;;;5055055;28;20049;-55
2023/05/03 12:02:10;;;;;;;4.15;2.40;;;14.80;91.40;;;;;;5050931;28;20044;-58
2023/05/03 12:04:40;;;;;;;4.82;2.13;;;14.80;91.70;;;;;;5046979;28;20164;-57
2023/05/03 12:07:07;;;;;;;6.75;2.33;;;14.90;91.80;;;;;;5052151;28;20033;-57
2023/05/03 12:09:33;;;;;;;5.85;2.20;;;15.00;91.20;;;;;;5052132;28;21154;-56
2023/05/03 12:12:01;;;;;;;7.68;2.50;;;15.00;92.00;;;;;;5048934;28;20115;-57
2023/05/03 12:14:27;;;;;;;5.55;2.20;;;15.10;92.30;;;;;;5041202;28;20042;-57
2023/05/03 12:16:54;;;;;;;4.75;2.25;;;15.30;91.50;;;;;;5042140;28;20538;-57
2023/05/03 12:19:32;;;;;;;5.35;2.22;;;15.40;91.50;;;;;;5046188;28;20481;-57
2023/05/03 12:21:57;;;;;;;4.93;2.10;;;15.40;90.80;;;;;;5044639;28;20095;-57
2023/05/03 12:24:25;;;;;;;5.15;2.25;;;15.40;90.70;;;;;;5051850;28;20068;-56
2023/05/03 12:26:51;;;;;;;4.22;2.42;;;15.60;89.40;;;;;;5040899;28;20504;-56
2023/05/03 12:29:18;;;;;;;6.00;1.92;;;15.60;89.50;;;;;;5053396;28;20029;-57
2023/05/03 12:31:44;;;;;;;3.55;1.75;;;15.70;90.20;;;;;;5048932;28;20390;-57
2023/05/03 12:34:10;;;;;;;5.05;2.35;;;15.80;90.20;;;;;;5053987;28;20037;-56
2023/05/03 12:36:37;;;;;;;3.90;2.33;;;15.90;89.70;;;;;;5055982;28;20056;-56
2023/05/03 12:39:03;;;;;;;4.88;2.22;;;16.00;87.90;;;;;;5049968;28;20049;-57
2023/05/03 12:41:30;;;;;;;5.38;2.20;;;16.00;88.30;;;;;;5056379;28;20053;-56
2023/05/03 12:44:01;;;;;;;3.78;2.15;;;16.10;88.50;;;;;;5052390;28;20045;-57
2023/05/03 12:46:27;;;;;;;3.03;2.00;;;16.30;88.10;;;;;;5051249;28;20037;-57
2023/05/03 12:48:53;;;;;;;5.15;2.13;;;16.60;88.60;;;;;;5055167;28;20056;-57
2023/05/03 12:51:19;;;;;;;8.02;2.42;;;17.10;89.00;;;;;;5052155;28;20544;-56
2023/05/03 12:53:46;;;;;;;4.55;2.13;;;17.30;83.10;;;;;;5055684;28;20067;-58